Terminal Aerodrome Forecast
Issued by NWS Bismarck, ND

Home | Current Version | Previous Version | Graphics & Text | Print | Product List | Glossary On
Versions: 1 2 3 4 5 6 7 8 9 10 11 12 13 14 15 16
000
FTUS43 KBIS 211000 AAA
TAFISN
TAF AMD
KISN 211011Z 2110/2206 31008KT P6SM FEW018 SCT300
      TEMPO 2110/2112 BKN015
     FM211200 31007KT P6SM BKN018
      TEMPO 2114/2115 SCT015
     FM211500 30008KT P6SM SKC
     FM212300 VRB03KT P6SM SKC
     FM220200 11004KT P6SM SKC=

USA.gov is the U.S. government's official web portal to all federal, state and local government web resources and services.